Time;durP1;ratioP1;P1;durP2;ratioP2;P2;SDS_P1;SDS_P2;PMS_P1;PMS_P2;Temp;Humidity;BMP_temperature;BMP_pressure;BME280_temperature;BME280_humidity;BME280_pressure;Samples;Min_cycle;Max_cycle;Signal;HPM_P1;HPM_P2
2023/05/12 00:01:22;;;;;;;33.35;18.98;;;11.60;99.90;;;;;;5092638;28;20511;-69
2023/05/12 00:03:47;;;;;;;36.53;19.65;;;11.60;99.90;;;;;;5092440;28;20143;-69
2023/05/12 00:06:13;;;;;;;33.70;18.67;;;11.60;99.90;;;;;;5092200;28;20035;-69
2023/05/12 00:08:39;;;;;;;33.05;18.17;;;11.60;99.90;;;;;;5092537;28;20047;-69
2023/05/12 00:11:04;;;;;;;33.75;17.33;;;11.60;99.90;;;;;;5074264;28;20042;-69
2023/05/12 00:13:30;;;;;;;31.85;18.30;;;11.70;99.90;;;;;;5092329;28;20097;-69
2023/05/12 00:15:57;;;;;;;36.50;17.98;;;11.70;99.90;;;;;;5092230;28;20123;-69
2023/05/12 00:18:23;;;;;;;39.08;18.83;;;11.70;99.90;;;;;;5092248;28;20036;-69
2023/05/12 00:20:49;;;;;;;34.33;18.25;;;11.70;99.90;;;;;;5092218;28;20044;-69
2023/05/12 00:23:14;;;;;;;40.45;20.20;;;11.70;99.90;;;;;;5092421;28;20089;-69
2023/05/12 00:25:40;;;;;;;36.25;17.73;;;11.70;99.90;;;;;;5092030;28;20036;-68
2023/05/12 00:28:06;;;;;;;32.65;17.63;;;11.70;99.90;;;;;;5092370;28;20044;-69
2023/05/12 00:30:31;;;;;;;32.17;16.95;;;11.70;99.90;;;;;;5092485;28;20032;-69
2023/05/12 00:32:57;;;;;;;35.75;18.60;;;11.70;99.90;;;;;;5092118;28;20040;-69
2023/05/12 00:35:23;;;;;;;37.05;19.20;;;11.70;99.90;;;;;;5091670;28;20071;-69
2023/05/12 00:37:48;;;;;;;36.13;19.27;;;11.70;99.90;;;;;;5092084;28;20059;-69
2023/05/12 00:40:14;;;;;;;41.00;19.98;;;11.70;99.90;;;;;;5091927;28;20036;-69
2023/05/12 00:42:40;;;;;;;42.72;20.25;;;11.80;99.90;;;;;;5092050;28;20032;-69
2023/05/12 00:45:06;;;;;;;35.67;18.77;;;11.80;99.90;;;;;;5091806;28;20040;-69
2023/05/12 00:47:32;;;;;;;43.80;20.50;;;11.80;99.90;;;;;;5091664;28;20040;-69
2023/05/12 00:49:58;;;;;;;35.90;18.98;;;11.80;99.90;;;;;;5091760;28;20054;-69
2023/05/12 00:52:25;;;;;;;36.55;17.95;;;11.80;99.90;;;;;;5092022;28;20089;-69
2023/05/12 00:54:50;;;;;;;32.72;17.58;;;11.90;99.90;;;;;;5090249;28;20082;-69
2023/05/12 00:57:17;;;;;;;42.67;19.30;;;11.90;99.90;;;;;;5091404;28;20063;-69
2023/05/12 00:59:43;;;;;;;36.63;19.30;;;11.90;99.90;;;;;;5090733;28;20047;-69
2023/05/12 01:02:09;;;;;;;41.88;20.95;;;11.90;99.90;;;;;;5091781;28;20495;-69
2023/05/12 01:04:35;;;;;;;48.63;22.08;;;11.90;99.90;;;;;;5091624;28;20036;-69
2023/05/12 01:07:08;;;;;;;43.65;20.63;;;11.90;99.90;;;;;;5094177;28;20043;-69
2023/05/12 01:09:34;;;;;;;59.95;24.35;;;12.00;99.90;;;;;;5094885;28;20039;-69
2023/05/12 01:12:00;;;;;;;39.20;20.20;;;12.00;99.90;;;;;;5095777;28;20044;-69
2023/05/12 01:14:26;;;;;;;38.10;18.35;;;12.00;99.90;;;;;;5095660;28;20063;-69
2023/05/12 01:16:53;;;;;;;40.42;20.02;;;12.00;99.90;;;;;;5095423;28;20036;-69
2023/05/12 01:19:41;;;;;;;40.22;19.80;;;12.10;99.90;;;;;;5095542;28;20503;-69
2023/05/12 01:22:08;;;;;;;38.03;20.05;;;12.10;99.90;;;;;;5095831;28;20115;-69
2023/05/12 01:24:44;;;;;;;33.30;18.63;;;12.10;99.90;;;;;;5095661;28;20444;-69
2023/05/12 01:27:10;;;;;;;43.22;22.02;;;12.20;99.90;;;;;;5095233;28;20040;-69
2023/05/12 01:29:37;;;;;;;46.55;20.98;;;12.10;99.90;;;;;;5095438;28;20050;-69
2023/05/12 01:32:03;;;;;;;39.53;21.38;;;12.10;99.90;;;;;;5095665;28;20051;-69
2023/05/12 01:34:28;;;;;;;40.28;22.73;;;12.10;99.90;;;;;;5095439;28;20406;-69
2023/05/12 01:36:54;;;;;;;46.80;22.33;;;12.10;99.90;;;;;;5093686;28;20119;-69
2023/05/12 01:39:20;;;;;;;42.20;22.35;;;12.10;99.90;;;;;;5095401;28;20040;-69
2023/05/12 01:41:45;;;;;;;43.92;20.63;;;12.10;99.90;;;;;;5095231;28;20123;-69
2023/05/12 01:44:11;;;;;;;38.30;19.90;;;12.10;99.90;;;;;;5095143;28;20082;-69
2023/05/12 01:46:36;;;;;;;46.22;22.10;;;12.10;99.90;;;;;;5095032;28;20051;-69
2023/05/12 01:49:02;;;;;;;42.65;22.52;;;12.10;99.90;;;;;;5095161;28;20080;-69
2023/05/12 01:51:27;;;;;;;44.10;22.35;;;12.00;99.90;;;;;;5094011;28;20032;-69
2023/05/12 01:53:53;;;;;;;41.70;20.98;;;12.10;99.90;;;;;;5095012;28;20043;-69
2023/05/12 01:56:18;;;;;;;43.15;22.58;;;12.00;99.90;;;;;;5094711;28;20040;-69
2023/05/12 01:58:44;;;;;;;40.60;21.38;;;12.10;99.90;;;;;;5094748;28;20082;-69
2023/05/12 02:01:10;;;;;;;38.50;20.20;;;12.10;99.90;;;;;;5094921;28;20039;-69
2023/05/12 02:03:36;;;;;;;42.03;23.00;;;12.10;99.90;;;;;;5095113;28;20036;-68
2023/05/12 02:06:02;;;;;;;46.58;21.33;;;12.10;99.90;;;;;;5093557;28;20114;-69
2023/05/12 02:08:28;;;;;;;48.03;21.52;;;12.10;99.90;;;;;;5094757;28;20123;-69
2023/05/12 02:11:06;;;;;;;50.50;24.92;;;12.10;99.90;;;;;;5094823;28;20032;-69
2023/05/12 02:13:33;;;;;;;47.08;22.33;;;12.10;99.90;;;;;;5093331;28;20538;-69
2023/05/12 02:15:59;;;;;;;46.50;22.30;;;12.10;99.90;;;;;;5094682;28;20119;-69
2023/05/12 02:18:24;;;;;;;38.80;21.55;;;12.10;99.90;;;;;;5094396;28;20107;-69
2023/05/12 02:20:50;;;;;;;43.30;22.17;;;12.10;99.90;;;;;;5094556;28;20036;-69
2023/05/12 02:23:15;;;;;;;44.42;22.38;;;12.20;99.90;;;;;;5094560;28;20040;-69
2023/05/12 02:25:41;;;;;;;40.60;20.52;;;12.10;99.90;;;;;;5093012;28;20042;-69
2023/05/12 02:28:09;;;;;;;48.80;22.48;;;12.20;99.90;;;;;;5094572;28;20125;-69
2023/05/12 02:30:35;;;;;;;42.47;21.58;;;12.10;99.90;;;;;;5094602;28;20040;-69
2023/05/12 02:33:01;;;;;;;45.38;21.77;;;12.10;99.90;;;;;;5094414;28;20119;-69
2023/05/12 02:35:27;;;;;;;47.13;22.80;;;12.10;99.90;;;;;;5094131;28;20115;-69
2023/05/12 02:37:52;;;;;;;43.00;22.63;;;12.10;99.90;;;;;;5094164;28;20085;-69
2023/05/12 02:40:18;;;;;;;41.30;21.00;;;12.10;99.90;;;;;;5094075;28;20539;-69
2023/05/12 02:42:44;;;;;;;43.47;22.92;;;12.00;99.90;;;;;;5081575;28;20515;-69
2023/05/12 02:45:10;;;;;;;41.15;21.02;;;12.10;99.90;;;;;;5072684;28;20051;-69
2023/05/12 02:47:36;;;;;;;39.35;19.98;;;12.10;99.90;;;;;;5073706;28;20044;-69
2023/05/12 02:50:02;;;;;;;44.03;21.42;;;12.10;99.90;;;;;;5073891;28;20044;-69
2023/05/12 02:52:28;;;;;;;44.85;23.10;;;12.10;99.90;;;;;;5072749;28;20072;-69
2023/05/12 02:54:54;;;;;;;37.67;20.70;;;12.10;99.90;;;;;;5073340;28;20119;-69
2023/05/12 02:57:20;;;;;;;40.47;20.27;;;12.10;99.90;;;;;;5073479;28;20036;-69
2023/05/12 02:59:46;;;;;;;46.53;21.13;;;12.10;99.90;;;;;;5073735;28;20037;-69
2023/05/12 03:02:11;;;;;;;36.80;18.45;;;12.10;99.90;;;;;;5073612;28;20033;-69
2023/05/12 03:04:37;;;;;;;44.65;22.23;;;12.10;99.90;;;;;;5073582;28;20040;-69
2023/05/12 03:07:03;;;;;;;41.45;20.08;;;12.10;99.90;;;;;;5073091;28;20101;-69
2023/05/12 03:09:28;;;;;;;42.10;21.75;;;12.10;99.90;;;;;;5073290;28;20127;-69
2023/05/12 03:11:54;;;;;;;40.58;20.95;;;12.20;99.90;;;;;;5073507;28;20046;-69
2023/05/12 03:14:19;;;;;;;41.05;21.52;;;12.20;99.90;;;;;;5073305;28;20037;-69
2023/05/12 03:16:45;;;;;;;47.08;23.33;;;12.20;99.90;;;;;;5071795;28;20043;-69
2023/05/12 03:19:10;;;;;;;44.35;22.02;;;12.10;99.90;;;;;;5073079;28;20033;-69
2023/05/12 03:21:36;;;;;;;48.13;23.60;;;12.10;99.90;;;;;;5073278;28;20036;-69
2023/05/12 03:24:02;;;;;;;39.47;21.85;;;12.10;99.90;;;;;;5073027;28;20071;-69
2023/05/12 03:26:27;;;;;;;46.08;23.45;;;12.10;99.90;;;;;;5073209;28;20044;-69
2023/05/12 03:28:53;;;;;;;45.28;24.33;;;12.10;99.90;;;;;;5072570;28;20040;-69
2023/05/12 03:31:18;;;;;;;48.53;23.92;;;12.10;99.90;;;;;;5073143;28;20055;-69
2023/05/12 03:33:44;;;;;;;50.17;23.05;;;12.10;99.90;;;;;;5072942;28;20047;-69
2023/05/12 03:36:09;;;;;;;46.35;25.42;;;12.10;99.90;;;;;;5072760;28;20574;-69
2023/05/12 03:38:35;;;;;;;47.17;23.48;;;12.10;99.90;;;;;;5071328;28;20111;-69
2023/05/12 03:41:07;;;;;;;47.70;23.52;;;12.10;99.90;;;;;;5072941;28;20067;-69
2023/05/12 03:43:33;;;;;;;40.92;21.77;;;12.10;99.90;;;;;;5072745;28;20041;-69
2023/05/12 03:45:59;;;;;;;43.75;22.33;;;12.10;99.90;;;;;;5072862;28;20044;-69
2023/05/12 03:48:24;;;;;;;45.45;22.30;;;12.20;99.90;;;;;;5072523;28;20120;-69
2023/05/12 03:50:50;;;;;;;46.75;23.27;;;12.20;99.90;;;;;;5072606;28;20036;-69
2023/05/12 03:53:16;;;;;;;46.90;24.40;;;12.20;99.90;;;;;;5072274;28;20037;-69
2023/05/12 03:55:41;;;;;;;53.75;24.65;;;12.20;99.90;;;;;;5072239;28;20466;-69
2023/05/12 03:58:07;;;;;;;46.53;22.67;;;12.10;99.90;;;;;;5072304;28;20607;-69
2023/05/12 04:00:33;;;;;;;53.35;24.55;;;12.20;99.90;;;;;;5072483;28;20137;-69
2023/05/12 04:02:59;;;;;;;45.58;24.00;;;12.20;99.90;;;;;;5072371;28;20101;-69
2023/05/12 04:05:24;;;;;;;48.35;23.77;;;12.20;99.90;;;;;;5072078;28;20075;-69
2023/05/12 04:07:50;;;;;;;54.00;23.85;;;12.20;99.90;;;;;;5072014;28;20068;-69
2023/05/12 04:10:16;;;;;;;49.17;23.65;;;12.20;99.90;;;;;;5054583;28;20480;-69
2023/05/12 04:12:41;;;;;;;54.80;26.70;;;12.20;99.90;;;;;;5072198;28;20036;-69
2023/05/12 04:15:07;;;;;;;57.08;25.10;;;12.20;99.90;;;;;;5072062;28;20043;-69
2023/05/12 04:17:33;;;;;;;50.72;23.83;;;12.10;99.90;;;;;;5072129;28;20032;-69
2023/05/12 04:19:59;;;;;;;53.72;25.90;;;12.10;99.90;;;;;;5054148;28;20044;-69
2023/05/12 04:22:25;;;;;;;49.83;22.88;;;12.20;99.90;;;;;;5072041;28;20135;-69
2023/05/12 04:24:50;;;;;;;47.40;23.80;;;12.20;99.90;;;;;;5070658;28;20045;-69
2023/05/12 04:27:16;;;;;;;45.05;23.73;;;12.20;99.90;;;;;;5071940;28;20047;-69
2023/05/12 04:29:42;;;;;;;49.50;23.90;;;12.20;99.90;;;;;;5072114;28;20036;-69
2023/05/12 04:32:07;;;;;;;45.95;23.80;;;12.20;99.90;;;;;;5072017;28;20044;-69
2023/05/12 04:34:33;;;;;;;46.22;23.05;;;12.20;99.90;;;;;;5071926;28;20047;-69
2023/05/12 04:36:59;;;;;;;52.42;25.85;;;12.20;99.90;;;;;;5071529;28;20051;-69
2023/05/12 04:39:24;;;;;;;47.10;23.58;;;12.20;99.90;;;;;;5070754;28;20040;-69
2023/05/12 04:41:50;;;;;;;49.28;24.77;;;12.20;99.90;;;;;;5071014;28;20492;-68
2023/05/12 04:44:16;;;;;;;52.05;23.65;;;12.30;99.90;;;;;;5070464;28;20492;-69
2023/05/12 04:46:42;;;;;;;59.42;26.27;;;12.30;99.90;;;;;;5070403;28;20499;-69
2023/05/12 04:49:08;;;;;;;45.45;23.65;;;12.30;99.90;;;;;;5071675;28;20083;-69
2023/05/12 04:51:33;;;;;;;61.13;26.60;;;12.30;99.90;;;;;;5070362;28;20076;-68
2023/05/12 04:53:59;;;;;;;58.38;26.75;;;12.30;99.90;;;;;;5070226;28;20044;-69
2023/05/12 04:56:24;;;;;;;56.05;27.25;;;12.30;99.90;;;;;;5114058;22;20473;-80
2023/05/12 04:58:50;;;;;;;47.67;23.98;;;12.30;99.90;;;;;;5112461;28;20031;-80
2023/05/12 05:01:16;;;;;;;46.92;25.30;;;12.30;99.90;;;;;;5096125;28;20036;-80
2023/05/12 05:03:42;;;;;;;60.60;27.25;;;12.30;99.90;;;;;;5112375;28;20035;-81
2023/05/12 05:06:07;;;;;;;49.08;24.10;;;12.30;99.90;;;;;;5112082;28;20042;-81
2023/05/12 05:08:33;;;;;;;58.40;28.10;;;12.30;99.90;;;;;;5111961;28;20036;-81
2023/05/12 05:10:58;;;;;;;56.90;27.02;;;12.30;99.90;;;;;;5112372;28;20043;-81
2023/05/12 05:13:24;;;;;;;62.63;28.83;;;12.40;99.90;;;;;;5095301;28;20079;-81
2023/05/12 05:15:51;;;;;;;52.28;26.52;;;12.30;99.90;;;;;;5111467;28;20039;-81
2023/05/12 05:18:17;;;;;;;55.72;26.80;;;12.40;99.90;;;;;;5094633;28;20035;-80
2023/05/12 05:20:44;;;;;;;48.38;24.05;;;12.30;99.90;;;;;;5094553;28;20085;-80
2023/05/12 05:23:10;;;;;;;55.80;27.67;;;12.30;99.90;;;;;;5112077;28;20039;-80
2023/05/12 05:25:35;;;;;;;51.10;26.23;;;12.30;99.90;;;;;;5111810;28;20097;-80
2023/05/12 05:28:01;;;;;;;44.47;25.30;;;12.40;99.90;;;;;;5094120;28;20521;-80
2023/05/12 05:30:27;;;;;;;49.83;25.92;;;12.40;99.90;;;;;;5094617;28;20035;-79
2023/05/12 05:32:52;;;;;;;47.35;23.80;;;12.40;99.90;;;;;;5111172;28;20531;-80
2023/05/12 05:35:18;;;;;;;50.65;24.92;;;12.40;99.90;;;;;;5094045;28;20046;-80
2023/05/12 05:37:44;;;;;;;49.33;25.40;;;12.40;99.90;;;;;;5093762;28;20043;-80
2023/05/12 05:40:10;;;;;;;57.70;27.77;;;12.40;99.90;;;;;;5110974;28;20035;-80
2023/05/12 05:42:35;;;;;;;54.17;26.48;;;12.40;99.90;;;;;;5111050;28;20089;-80
2023/05/12 05:45:01;;;;;;;54.63;27.08;;;12.50;99.90;;;;;;5111007;28;20043;-80
2023/05/12 05:47:27;;;;;;;55.33;27.98;;;12.50;99.90;;;;;;5110459;28;20043;-80
2023/05/12 05:49:53;;;;;;;56.25;27.75;;;12.50;99.90;;;;;;5110912;28;20048;-79
2023/05/12 05:52:18;;;;;;;57.35;25.00;;;12.50;99.90;;;;;;5112304;28;20502;-79
2023/05/12 05:54:44;;;;;;;58.50;29.85;;;12.60;99.90;;;;;;5097758;28;20031;-80
2023/05/12 05:57:09;;;;;;;56.35;29.10;;;12.60;99.90;;;;;;5097390;28;20036;-79
2023/05/12 05:59:35;;;;;;;55.88;26.92;;;12.70;99.90;;;;;;5114706;28;20522;-80
2023/05/12 06:02:01;;;;;;;58.65;29.35;;;12.70;99.90;;;;;;5097285;28;20038;-80
2023/05/12 06:04:27;;;;;;;48.08;23.80;;;12.80;99.90;;;;;;5097604;28;20051;-80
2023/05/12 06:06:52;;;;;;;54.90;25.48;;;12.80;99.90;;;;;;5101033;28;20043;-80
2023/05/12 06:09:18;;;;;;;48.83;25.23;;;12.90;99.90;;;;;;5124177;28;20043;-81
2023/05/12 06:11:43;;;;;;;49.25;24.25;;;12.90;99.90;;;;;;5115938;28;20056;-80
2023/05/12 06:14:10;;;;;;;46.35;24.67;;;12.90;99.90;;;;;;5115470;28;20043;-80
2023/05/12 06:16:36;;;;;;;45.22;23.55;;;13.00;99.90;;;;;;5114868;28;20590;-81
2023/05/12 06:19:01;;;;;;;47.47;24.48;;;12.90;99.90;;;;;;5115202;28;20074;-80
2023/05/12 06:21:27;;;;;;;56.60;26.58;;;13.00;99.90;;;;;;5098678;28;20036;-80
2023/05/12 06:23:54;;;;;;;48.28;27.00;;;13.00;99.90;;;;;;5115275;28;20130;-80
2023/05/12 06:26:20;;;;;;;49.97;27.23;;;13.00;99.90;;;;;;5114897;28;20093;-80
2023/05/12 06:28:47;;;;;;;44.83;25.05;;;13.10;99.90;;;;;;5097936;28;20441;-81
2023/05/12 06:31:12;;;;;;;49.45;27.48;;;13.10;99.90;;;;;;5114687;28;20039;-80
2023/05/12 06:33:38;;;;;;;51.45;27.63;;;13.10;99.90;;;;;;5097793;28;20043;-79
2023/05/12 06:36:04;;;;;;;55.33;27.70;;;13.10;99.90;;;;;;5114703;28;20111;-80
2023/05/12 06:38:30;;;;;;;52.95;28.30;;;13.10;99.90;;;;;;5098969;28;20051;-79
2023/05/12 06:40:55;;;;;;;50.55;28.15;;;13.10;99.90;;;;;;5117434;28;20035;-79
2023/05/12 06:43:22;;;;;;;51.30;28.02;;;13.10;99.90;;;;;;5117832;28;20032;-80
2023/05/12 06:45:48;;;;;;;48.65;26.83;;;13.20;99.90;;;;;;5098214;28;20035;-80
2023/05/12 06:48:14;;;;;;;45.28;23.30;;;13.20;99.90;;;;;;5115153;28;20035;-81
2023/05/12 06:50:39;;;;;;;46.55;25.00;;;13.30;99.90;;;;;;5098024;28;20112;-80
2023/05/12 06:53:06;;;;;;;46.78;24.85;;;13.30;99.90;;;;;;5097727;28;20039;-79
2023/05/12 06:55:32;;;;;;;53.10;27.75;;;13.30;99.90;;;;;;5114454;28;20050;-79
2023/05/12 06:57:59;;;;;;;54.03;27.75;;;13.30;99.90;;;;;;5097768;28;20507;-80
2023/05/12 07:00:25;;;;;;;50.50;27.25;;;13.40;99.90;;;;;;5114327;28;20127;-80
2023/05/12 07:02:51;;;;;;;49.47;27.95;;;13.40;99.90;;;;;;5097254;28;20532;-80
2023/05/12 07:05:17;;;;;;;48.70;27.88;;;13.40;99.90;;;;;;5113436;28;20043;-80
2023/05/12 07:07:43;;;;;;;50.47;29.80;;;13.40;99.90;;;;;;5114562;28;20069;-80
2023/05/12 07:10:09;;;;;;;49.63;27.00;;;13.50;99.90;;;;;;5114362;28;20138;-80
2023/05/12 07:12:35;;;;;;;51.67;27.38;;;13.50;99.90;;;;;;5114253;28;20075;-80
2023/05/12 07:15:00;;;;;;;49.13;26.33;;;13.60;99.90;;;;;;5114422;28;20074;-80
2023/05/12 07:17:27;;;;;;;52.15;30.20;;;13.60;99.90;;;;;;5098471;28;20094;-80
2023/05/12 07:19:53;;;;;;;55.55;31.30;;;13.70;99.90;;;;;;5096969;28;20130;-80
2023/05/12 07:22:19;;;;;;;60.83;30.67;;;13.70;99.90;;;;;;5096831;28;20082;-80
2023/05/12 07:24:44;;;;;;;53.72;30.52;;;13.80;99.90;;;;;;5113943;28;20051;-80
2023/05/12 07:27:10;;;;;;;56.75;29.73;;;13.90;99.90;;;;;;5096215;28;20102;-80
2023/05/12 07:29:36;;;;;;;51.83;28.73;;;13.90;99.90;;;;;;5113561;28;20511;-79
2023/05/12 07:32:02;;;;;;;55.10;30.38;;;14.10;99.90;;;;;;5096480;28;20415;-79
2023/05/12 07:34:27;;;;;;;50.47;28.73;;;14.10;99.90;;;;;;5089336;28;20029;-79
2023/05/12 07:36:53;;;;;;;54.20;32.38;;;14.30;99.90;;;;;;5099198;28;20518;-80
2023/05/12 07:39:22;;;;;;;50.75;31.15;;;14.30;99.90;;;;;;5092475;28;20036;-81
2023/05/12 07:41:49;;;;;;;52.85;32.33;;;14.40;99.90;;;;;;5083276;28;20458;-80
2023/05/12 07:44:15;;;;;;;54.28;29.58;;;14.50;99.90;;;;;;5092990;28;20568;-78
2023/05/12 07:46:40;;;;;;;52.55;31.33;;;14.60;99.90;;;;;;5093629;28;20111;-78
2023/05/12 07:49:06;;;;;;;53.28;31.88;;;14.60;99.90;;;;;;5082976;28;20526;-79
2023/05/12 07:51:32;;;;;;;49.45;31.45;;;14.70;99.90;;;;;;5087900;28;20043;-80
2023/05/12 07:53:57;;;;;;;53.47;30.00;;;14.70;99.90;;;;;;5113288;28;20044;-77
2023/05/12 07:56:23;;;;;;;52.78;30.33;;;14.80;99.90;;;;;;5112008;28;20067;-78
2023/05/12 07:58:49;;;;;;;50.45;33.45;;;14.80;99.90;;;;;;5112052;28;20144;-79
2023/05/12 08:01:14;;;;;;;57.90;32.42;;;14.80;99.90;;;;;;5111812;28;20566;-79
2023/05/12 08:03:40;;;;;;;54.58;31.63;;;14.90;99.90;;;;;;5094677;28;20487;-78
2023/05/12 08:06:06;;;;;;;50.33;34.05;;;15.00;99.90;;;;;;5094586;28;20067;-78
2023/05/12 08:08:33;;;;;;;49.75;31.08;;;15.00;99.90;;;;;;5111664;28;20043;-78
2023/05/12 08:10:58;;;;;;;44.78;31.55;;;15.00;99.90;;;;;;5111722;28;20031;-78
2023/05/12 08:13:25;;;;;;;52.70;32.05;;;15.00;99.90;;;;;;5094650;28;20039;-78
2023/05/12 08:15:51;;;;;;;44.72;29.05;;;15.00;99.90;;;;;;5094193;28;20032;-77
2023/05/12 08:18:16;;;;;;;50.17;28.92;;;15.10;99.90;;;;;;5114332;28;20498;-79
2023/05/12 08:20:42;;;;;;;48.47;30.35;;;15.10;99.90;;;;;;5096681;28;20031;-79
2023/05/12 08:23:08;;;;;;;47.92;31.38;;;15.20;99.90;;;;;;5112017;28;20039;-79
2023/05/12 08:25:35;;;;;;;51.45;30.17;;;15.30;99.90;;;;;;5094361;28;20042;-78
2023/05/12 08:28:01;;;;;;;51.90;31.83;;;15.40;99.90;;;;;;5111530;28;20082;-78
2023/05/12 08:30:27;;;;;;;55.83;36.22;;;15.50;99.90;;;;;;5111566;28;20039;-78
2023/05/12 08:32:56;;;;;;;50.20;32.72;;;15.70;99.90;;;;;;5111104;28;20499;-78
2023/05/12 08:35:25;;;;;;;47.47;31.27;;;15.70;99.90;;;;;;5110920;28;20035;-78
2023/05/12 08:37:51;;;;;;;48.03;29.90;;;15.80;99.90;;;;;;5111254;28;20058;-77
2023/05/12 08:40:20;;;;;;;45.35;30.10;;;15.90;99.90;;;;;;5111110;28;20032;-77
2023/05/12 08:43:20;;;;;;;42.53;29.15;;;16.10;99.90;;;;;;5111289;28;20443;-78
2023/05/12 08:45:46;;;;;;;39.45;26.50;;;16.30;99.90;;;;;;5110871;28;20047;-76
2023/05/12 08:48:14;;;;;;;39.40;25.40;;;16.40;99.90;;;;;;5111118;28;20031;-77
2023/05/12 08:50:41;;;;;;;39.55;27.70;;;16.50;99.90;;;;;;5111250;28;20043;-78
2023/05/12 08:53:11;;;;;;;42.28;28.13;;;16.70;99.90;;;;;;5094124;28;20040;-78
2023/05/12 08:55:38;;;;;;;36.47;25.63;;;16.80;99.90;;;;;;5110610;28;20050;-78
2023/05/12 08:58:03;;;;;;;36.88;24.65;;;17.10;99.90;;;;;;5111342;28;20470;-78
2023/05/12 09:00:31;;;;;;;38.13;25.23;;;17.40;99.90;;;;;;5094788;28;20031;-78
2023/05/12 09:02:58;;;;;;;39.63;27.70;;;17.70;99.90;;;;;;5094969;28;20088;-76
2023/05/12 09:05:25;;;;;;;39.55;25.88;;;17.70;99.90;;;;;;5110506;28;20118;-77
2023/05/12 09:07:54;;;;;;;37.85;26.08;;;17.80;99.90;;;;;;5110957;28;20042;-77
2023/05/12 09:10:21;;;;;;;37.75;27.08;;;18.00;99.90;;;;;;5093993;28;20047;-77
2023/05/12 09:12:47;;;;;;;34.45;24.88;;;18.30;99.90;;;;;;5110739;28;20039;-77
2023/05/12 09:15:29;;;;;;;34.35;24.52;;;18.40;99.90;;;;;;5093501;28;20124;-78
2023/05/12 09:17:54;;;;;;;35.80;25.73;;;18.40;99.90;;;;;;5093627;28;20067;-78
2023/05/12 09:20:20;;;;;;;34.38;24.65;;;18.40;99.90;;;;;;5111080;28;20098;-77
2023/05/12 09:22:46;;;;;;;35.45;25.55;;;18.30;99.90;;;;;;5110525;28;20032;-77
2023/05/12 09:25:20;;;;;;;34.38;23.63;;;18.40;99.90;;;;;;5110633;28;20122;-77
2023/05/12 09:27:47;;;;;;;31.02;22.33;;;18.60;99.90;;;;;;5095384;28;20499;-77
2023/05/12 09:30:13;;;;;;;33.25;22.63;;;18.80;99.90;;;;;;5114962;28;20039;-77
2023/05/12 09:32:39;;;;;;;27.05;22.92;;;18.90;99.90;;;;;;5097674;28;20073;-77
2023/05/12 09:35:06;;;;;;;27.20;20.27;;;19.10;99.90;;;;;;5097657;28;20122;-77
2023/05/12 09:37:33;;;;;;;30.25;20.95;;;19.10;99.90;;;;;;5114498;28;20040;-77
2023/05/12 09:40:04;;;;;;;30.15;20.73;;;19.10;99.90;;;;;;5114508;28;20513;-77
2023/05/12 09:42:31;;;;;;;29.17;20.77;;;19.20;99.90;;;;;;5097621;28;20039;-77
2023/05/12 09:45:10;;;;;;;25.00;20.33;;;19.10;99.90;;;;;;5114480;28;20044;-77
2023/05/12 09:47:39;;;;;;;26.88;20.20;;;19.10;99.90;;;;;;5114367;28;20039;-77
2023/05/12 09:50:07;;;;;;;29.45;21.23;;;19.20;99.90;;;;;;5114525;28;20036;-77
2023/05/12 09:52:37;;;;;;;28.38;20.13;;;19.20;99.90;;;;;;5114538;28;20499;-77
2023/05/12 09:55:07;;;;;;;28.67;20.58;;;19.10;99.90;;;;;;5097097;28;20082;-77
2023/05/12 09:57:38;;;;;;;26.08;20.67;;;19.00;99.90;;;;;;5111932;28;20036;-77
2023/05/12 10:00:08;;;;;;;30.10;22.90;;;19.00;99.90;;;;;;5103868;28;20032;-77
2023/05/12 10:02:35;;;;;;;28.70;21.00;;;19.10;99.90;;;;;;5113122;28;20035;-77
2023/05/12 10:05:05;;;;;;;29.63;21.98;;;19.20;99.90;;;;;;5114248;28;20047;-78
2023/05/12 10:07:32;;;;;;;26.73;21.75;;;19.20;99.90;;;;;;5096978;28;20040;-78
2023/05/12 10:10:00;;;;;;;28.52;20.02;;;19.40;99.90;;;;;;5114349;28;20047;-79
2023/05/12 10:12:26;;;;;;;26.30;20.98;;;19.40;99.90;;;;;;5114552;28;20040;-78
2023/05/12 10:14:52;;;;;;;29.52;22.48;;;19.40;99.90;;;;;;5096872;28;20526;-78
2023/05/12 10:17:19;;;;;;;26.10;19.35;;;19.50;99.90;;;;;;5113595;28;20036;-79
2023/05/12 10:19:46;;;;;;;23.67;18.08;;;19.50;99.90;;;;;;5113851;28;20526;-78
2023/05/12 10:22:14;;;;;;;26.15;19.90;;;19.60;99.90;;;;;;5097262;28;20093;-78
2023/05/12 10:24:41;;;;;;;27.88;19.10;;;19.50;99.90;;;;;;5113894;28;20032;-78
2023/05/12 10:27:07;;;;;;;23.58;18.95;;;19.60;99.90;;;;;;5113782;28;20047;-78
2023/05/12 10:29:33;;;;;;;29.85;20.52;;;19.60;99.90;;;;;;5113880;28;20054;-79
2023/05/12 10:32:02;;;;;;;25.00;18.80;;;19.80;99.90;;;;;;5113746;28;20044;-79
2023/05/12 10:34:39;;;;;;;26.02;18.50;;;19.80;99.90;;;;;;5096681;28;20061;-79
2023/05/12 10:37:09;;;;;;;22.92;17.15;;;19.90;99.90;;;;;;5096104;28;20036;-79
2023/05/12 10:39:36;;;;;;;19.65;15.13;;;20.00;99.90;;;;;;5104152;28;20043;-79
2023/05/12 10:42:07;;;;;;;19.55;14.30;;;20.00;99.90;;;;;;5082523;28;20067;-79
2023/05/12 10:44:34;;;;;;;16.92;12.85;;;20.10;99.90;;;;;;5093105;28;20036;-79
2023/05/12 10:46:59;;;;;;;17.10;14.35;;;20.20;99.90;;;;;;5093315;28;20392;-77
2023/05/12 10:49:33;;;;;;;16.90;13.57;;;20.20;99.90;;;;;;5093882;28;20048;-79
2023/05/12 10:52:00;;;;;;;16.15;13.57;;;20.30;99.90;;;;;;5094391;28;20048;-79
2023/05/12 10:54:29;;;;;;;17.00;12.70;;;20.30;99.90;;;;;;5077320;28;20044;-79
2023/05/12 10:56:59;;;;;;;17.38;14.23;;;20.30;99.90;;;;;;5085436;28;20040;-79
2023/05/12 10:59:26;;;;;;;21.40;16.52;;;20.40;99.90;;;;;;5080018;28;20039;-77
2023/05/12 11:02:13;;;;;;;19.75;14.93;;;20.30;99.90;;;;;;5075447;28;20068;-77
2023/05/12 11:05:03;;;;;;;18.83;14.02;;;20.30;99.90;;;;;;5084140;28;20044;-77
2023/05/12 11:07:33;;;;;;;14.02;11.55;;;20.30;99.90;;;;;;5093279;28;20495;-77
2023/05/12 11:10:02;;;;;;;14.35;12.77;;;20.30;99.90;;;;;;5112584;28;20035;-77
2023/05/12 11:12:34;;;;;;;15.10;12.02;;;20.30;99.90;;;;;;5112463;28;20041;-77
2023/05/12 11:15:02;;;;;;;18.70;12.02;;;20.20;99.90;;;;;;5095563;28;20533;-77
2023/05/12 11:17:27;;;;;;;16.30;10.20;;;20.30;99.90;;;;;;5095054;28;20040;-77
2023/05/12 11:19:54;;;;;;;14.63;12.13;;;20.30;99.90;;;;;;5112342;28;20092;-77
2023/05/12 11:22:21;;;;;;;12.15;9.48;;;20.30;99.90;;;;;;5095673;28;20039;-77
2023/05/12 11:24:48;;;;;;;10.57;8.93;;;20.30;99.90;;;;;;5095366;28;20040;-77
2023/05/12 11:27:15;;;;;;;9.77;8.48;;;20.50;99.90;;;;;;5095380;28;20078;-77
2023/05/12 11:29:42;;;;;;;8.35;6.25;;;20.60;99.90;;;;;;5112314;28;20043;-78
2023/05/12 11:32:09;;;;;;;9.93;7.35;;;20.60;99.90;;;;;;5112750;28;20031;-77
2023/05/12 11:34:34;;;;;;;9.00;8.07;;;20.80;99.90;;;;;;5095197;28;20042;-78
2023/05/12 11:37:00;;;;;;;8.07;6.35;;;20.80;99.90;;;;;;5112145;28;20039;-77
2023/05/12 11:39:29;;;;;;;6.50;5.15;;;20.90;99.90;;;;;;5112056;28;20036;-76
2023/05/12 11:42:09;;;;;;;6.25;4.68;;;21.00;96.70;;;;;;5095233;28;20101;-76
2023/05/12 11:44:35;;;;;;;5.97;5.22;;;21.10;96.10;;;;;;5112090;28;20126;-77
2023/05/12 11:47:10;;;;;;;5.47;4.85;;;21.20;96.40;;;;;;5111781;28;20593;-77
2023/05/12 11:49:44;;;;;;;5.80;4.50;;;21.20;96.10;;;;;;5094745;28;20073;-77
2023/05/12 11:52:10;;;;;;;7.03;5.00;;;21.20;95.10;;;;;;5112424;28;20368;-77
2023/05/12 11:54:36;;;;;;;8.18;5.47;;;21.40;95.40;;;;;;5112056;28;20043;-77
2023/05/12 11:57:02;;;;;;;8.27;4.45;;;21.50;95.10;;;;;;5095170;28;20511;-77
2023/05/12 11:59:33;;;;;;;5.15;3.78;;;21.50;94.20;;;;;;5095510;28;20031;-77
2023/05/12 12:02:02;;;;;;;4.97;4.05;;;21.40;93.20;;;;;;5111980;28;20032;-77
2023/05/12 12:04:31;;;;;;;9.45;4.40;;;21.40;92.70;;;;;;5095097;28;20074;-77
2023/05/12 12:06:57;;;;;;;5.97;3.60;;;21.60;91.40;;;;;;5112086;28;20433;-78
2023/05/12 12:09:30;;;;;;;6.05;4.22;;;21.60;90.40;;;;;;5112278;28;20039;-78
2023/05/12 12:11:56;;;;;;;8.18;3.85;;;21.50;90.30;;;;;;5112319;28;20050;-78
2023/05/12 12:14:21;;;;;;;4.75;3.33;;;21.40;89.40;;;;;;5112282;28;20044;-78
2023/05/12 12:16:47;;;;;;;5.18;4.10;;;21.40;86.20;;;;;;5094935;28;20134;-78
2023/05/12 12:19:12;;;;;;;4.20;3.50;;;21.40;85.20;;;;;;5111767;28;20040;-77
2023/05/12 12:21:38;;;;;;;5.40;3.97;;;21.40;85.80;;;;;;5112209;28;20563;-77
2023/05/12 12:24:04;;;;;;;6.80;4.50;;;21.40;86.50;;;;;;5112085;28;20547;-78
2023/05/12 12:26:30;;;;;;;5.68;3.65;;;21.40;90.30;;;;;;5112024;28;20042;-78